Terminal Aerodrome Forecast
Issued by NWS Twin Cities, MN

Home | Current Version | Previous Version | Text Only | Print | Product List | Glossary Off
Versions: 1 2 3 4 5 6 7 8 9 10 11 12 13 14 15 16 17 18 19 20 21 22 23 24 25 26 27

000
FTUS43 KMPX 182320
TAFMSP
TAF
KMSP 182320Z 1900/2006 13011KT P6SM OVC010
     FM190200 12007KT P6SM OVC007
     FM191500 13012KT P6SM OVC017
     FM191900 13014G22KT P6SM SCT020 OVC050=

USA.gov is the U.S. government's official web portal to all federal, state and local government web resources and services.